Time;durP1;ratioP1;P1;durP2;ratioP2;P2;SDS_P1;SDS_P2;PMS_P1;PMS_P2;Temp;Humidity;BMP_temperature;BMP_pressure;BME280_temperature;BME280_humidity;BME280_pressure;Samples;Min_cycle;Max_cycle;Signal;HPM_P1;HPM_P2
2021/07/18 00:01:45;;;;;;;7.60;6.90;;;;;;;22.45;100.00;97653.34;5039908;28;20247;-63
2021/07/18 00:04:12;;;;;;;7.93;7.23;;;;;;;22.44;100.00;97660.16;5038928;28;20652;-63
2021/07/18 00:06:42;;;;;;;7.77;7.07;;;;;;;22.45;100.00;97655.91;5037776;28;20205;-63
2021/07/18 00:09:09;;;;;;;8.17;7.47;;;;;;;22.44;100.00;97649.06;5035399;28;20627;-64
2021/07/18 00:11:36;;;;;;;7.90;7.20;;;;;;;22.44;100.00;97649.06;5036630;28;20665;-61
2021/07/18 00:14:02;;;;;;;7.87;7.07;;;;;;;22.33;100.00;97624.84;5041685;28;20202;-62
2021/07/18 00:16:29;;;;;;;8.00;7.20;;;;;;;22.45;100.00;97640.53;5044456;28;20306;-62
2021/07/18 00:18:56;;;;;;;7.80;7.10;;;;;;;22.42;100.00;97641.34;5043700;28;20211;-64
2021/07/18 00:21:23;;;;;;;7.73;7.03;;;;;;;22.44;100.00;97646.50;5044273;28;20305;-61
2021/07/18 00:23:50;;;;;;;8.00;7.20;;;;;;;22.00;100.00;97571.00;5043675;28;20248;-61
2021/07/18 00:26:16;;;;;;;7.70;7.00;;;;;;;22.43;100.00;97639.63;5043173;28;20239;-63
2021/07/18 00:28:43;;;;;;;8.27;7.47;;;;;;;22.41;100.00;97638.72;5039071;28;20229;-64
2021/07/18 00:31:09;;;;;;;7.57;6.97;;;;;;;22.44;100.00;97638.81;5043483;28;20267;-65
2021/07/18 00:33:36;;;;;;;7.30;6.70;;;;;;;22.39;100.00;97628.44;5042041;28;20243;-62
2021/07/18 00:36:03;;;;;;;8.60;7.30;;;;;;;22.44;100.00;97638.81;5041581;28;20806;-63
2021/07/18 00:38:29;;;;;;;7.93;7.13;;;;;;;22.43;100.00;97637.06;5042206;28;20276;-60
2021/07/18 00:40:56;;;;;;;7.53;6.87;;;;;;;22.43;100.00;97634.50;5039947;28;20363;-64
2021/07/18 00:43:23;;;;;;;7.50;6.80;;;;;;;22.43;100.00;97643.06;5041931;28;20292;-59
2021/07/18 00:46:02;;;;;;;8.00;7.30;;;;;;;22.43;100.00;97639.63;5040442;28;20232;-62
2021/07/18 00:48:30;;;;;;;7.33;6.67;;;;;;;22.43;100.00;97631.94;5028091;28;20704;-64
2021/07/18 00:50:56;;;;;;;7.50;6.80;;;;;;;21.92;100.00;97544.34;5037206;28;20757;-63
2021/07/18 00:53:23;;;;;;;7.30;6.60;;;;;;;22.39;100.00;97612.19;5039787;28;20252;-62
2021/07/18 00:55:50;;;;;;;8.03;7.33;;;;;;;22.38;100.00;97623.28;5042670;28;20672;-64
2021/07/18 00:58:17;;;;;;;7.57;6.87;;;;;;;22.42;100.00;97625.97;5041600;28;20298;-63
2021/07/18 01:00:44;;;;;;;7.13;6.53;;;;;;;22.40;100.00;97622.47;5034697;28;20222;-63
2021/07/18 01:03:10;;;;;;;7.97;6.83;;;;;;;22.42;100.00;97628.53;5035673;28;20211;-60
2021/07/18 01:05:37;;;;;;;7.80;7.00;;;;;;;22.25;100.00;97609.25;5036661;28;20228;-66
2021/07/18 01:08:04;;;;;;;7.60;6.90;;;;;;;22.43;100.00;97630.25;5041739;28;20284;-61
2021/07/18 01:10:30;;;;;;;7.67;7.00;;;;;;;22.42;100.00;97632.78;5039468;28;20232;-61
2021/07/18 01:12:57;;;;;;;7.73;7.03;;;;;;;22.42;100.00;97632.78;5045746;28;20208;-64
2021/07/18 01:15:35;;;;;;;7.50;6.90;;;;;;;22.41;100.00;97637.00;5036299;28;20291;-61
2021/07/18 01:18:02;;;;;;;7.57;6.87;;;;;;;22.39;100.00;97625.88;5029487;28;20205;-61
2021/07/18 01:20:29;;;;;;;6.83;6.23;;;;;;;22.40;100.00;97631.84;5039419;28;20311;-63
2021/07/18 01:22:55;;;;;;;7.20;6.60;;;;;;;22.39;100.00;97635.25;5023394;28;20240;-61
2021/07/18 01:25:22;;;;;;;7.37;6.67;;;;;;;22.38;100.00;97638.63;5026872;28;20240;-62
2021/07/18 01:27:49;;;;;;;7.03;6.43;;;;;;;22.25;100.00;97614.38;5039156;28;20247;-61
2021/07/18 01:30:16;;;;;;;6.93;6.07;;;;;;;22.36;100.00;97624.91;5041217;28;20229;-62
2021/07/18 01:32:42;;;;;;;7.63;6.57;;;;;;;22.31;100.00;97619.66;5037266;28;20241;-63
2021/07/18 01:35:09;;;;;;;7.33;6.73;;;;;;;22.31;100.00;97616.22;5031841;28;20703;-63
2021/07/18 01:37:36;;;;;;;8.07;7.27;;;;;;;22.36;100.00;97627.47;5036624;28;20237;-61
2021/07/18 01:40:05;;;;;;;7.07;6.40;;;;;;;22.35;100.00;97623.19;5043596;28;20333;-62
2021/07/18 01:42:32;;;;;;;7.13;6.43;;;;;;;22.36;100.00;97619.78;5041538;28;20248;-64
2021/07/18 01:44:58;;;;;;;6.63;6.03;;;;;;;22.35;100.00;97626.59;5038606;28;20288;-62
2021/07/18 01:47:25;;;;;;;6.97;6.30;;;;;;;22.35;100.00;97624.03;5041751;28;20209;-63
2021/07/18 01:49:52;;;;;;;6.70;6.13;;;;;;;22.36;100.00;97630.03;5038565;28;20738;-62
2021/07/18 01:52:18;;;;;;;6.87;6.27;;;;;;;22.36;100.00;97632.59;5044434;28;20627;-62
2021/07/18 01:54:45;;;;;;;7.43;6.73;;;;;;;22.36;100.00;97628.34;5041803;28;20225;-64
2021/07/18 01:57:15;;;;;;;6.97;6.37;;;;;;;22.37;100.00;97632.63;5043874;28;20205;-61
2021/07/18 01:59:41;;;;;;;6.47;5.93;;;;;;;22.36;100.00;97628.34;5041593;28;20676;-61
2021/07/18 02:02:08;;;;;;;7.30;6.70;;;;;;;22.36;100.00;97627.47;5037391;28;20212;-61
2021/07/18 02:04:35;;;;;;;6.67;6.07;;;;;;;22.37;100.00;97621.53;5043406;28;20255;-61
2021/07/18 02:07:04;;;;;;;6.83;6.23;;;;;;;22.39;100.00;97627.56;5036672;28;20241;-62
2021/07/18 02:09:31;;;;;;;6.80;6.10;;;;;;;22.30;100.00;97614.50;5042830;28;20286;-61
2021/07/18 02:11:58;;;;;;;6.40;5.90;;;;;;;22.38;100.00;97626.69;5033123;28;20244;-64
2021/07/18 02:14:25;;;;;;;7.10;6.53;;;;;;;22.38;100.00;97629.25;5041734;28;20216;-63
2021/07/18 02:16:53;;;;;;;7.07;6.37;;;;;;;22.34;100.00;97619.75;5039124;28;20342;-60
2021/07/18 02:19:19;;;;;;;6.93;6.13;;;;;;;22.39;100.00;97627.56;5038813;28;20229;-61
2021/07/18 02:21:46;;;;;;;6.77;6.10;;;;;;;22.36;100.00;97628.34;5041492;28;20807;-60
2021/07/18 02:24:13;;;;;;;6.70;6.10;;;;;;;22.38;100.00;97629.25;5038187;28;20288;-63
2021/07/18 02:26:39;;;;;;;6.97;6.37;;;;;;;21.91;100.00;97565.63;5041983;28;20228;-66
2021/07/18 02:29:06;;;;;;;7.10;6.50;;;;;;;22.39;100.00;97643.81;5042946;28;20284;-62
2021/07/18 02:31:33;;;;;;;6.20;5.70;;;;;;;22.32;100.00;97628.22;5040975;28;20300;-64
2021/07/18 02:34:00;;;;;;;7.03;6.37;;;;;;;22.39;100.00;97641.25;5037008;28;20244;-64
2021/07/18 02:36:26;;;;;;;5.87;5.37;;;;;;;22.38;100.00;97636.94;5040715;28;20886;-62
2021/07/18 02:38:54;;;;;;;7.33;6.63;;;;;;;22.39;100.00;97633.56;5037822;28;20248;-60
2021/07/18 02:41:21;;;;;;;6.67;6.07;;;;;;;22.31;100.00;97622.22;5040609;28;20224;-64
2021/07/18 02:43:47;;;;;;;5.73;5.33;;;;;;;22.40;100.00;97632.72;5037684;28;20233;-60
2021/07/18 02:46:14;;;;;;;6.80;6.20;;;;;;;22.40;100.00;97642.09;5040460;28;20197;-64
2021/07/18 02:48:41;;;;;;;6.27;5.70;;;;;;;22.39;100.00;97631.00;5040845;28;20211;-63
2021/07/18 02:51:07;;;;;;;6.23;5.73;;;;;;;22.38;100.00;97625.84;5038150;28;20249;-62
2021/07/18 02:53:34;;;;;;;6.37;5.77;;;;;;;22.38;100.00;97636.94;5040217;28;20634;-63
2021/07/18 02:56:00;;;;;;;6.50;5.90;;;;;;;22.34;100.00;97624.88;5039841;28;20225;-61
2021/07/18 02:58:27;;;;;;;6.40;5.80;;;;;;;22.40;100.00;97634.41;5038309;28;20729;-61
2021/07/18 03:00:53;;;;;;;6.37;5.77;;;;;;;22.40;100.00;97635.28;5037142;28;20848;-64
2021/07/18 03:03:20;;;;;;;6.10;5.53;;;;;;;22.39;100.00;97636.13;5036851;28;20209;-61
2021/07/18 03:05:47;;;;;;;6.43;5.83;;;;;;;22.40;100.00;97629.28;5039958;28;20296;-61
2021/07/18 03:08:14;;;;;;;6.90;5.67;;;;;;;22.35;100.00;97615.50;5036766;28;20738;-62
2021/07/18 03:10:40;;;;;;;6.27;5.63;;;;;;;22.40;100.00;97616.47;5041260;28;20328;-64
2021/07/18 03:13:07;;;;;;;6.03;5.53;;;;;;;22.41;100.00;97618.25;5038286;28;20296;-61
2021/07/18 03:15:33;;;;;;;5.70;5.20;;;;;;;22.39;100.00;97622.44;5036290;28;20290;-61
2021/07/18 03:18:02;;;;;;;6.40;5.90;;;;;;;22.41;100.00;97628.47;5036107;28;20712;-63
2021/07/18 03:20:29;;;;;;;6.20;5.67;;;;;;;22.35;100.00;97612.94;5036831;28;20770;-66
2021/07/18 03:22:55;;;;;;;5.77;5.27;;;;;;;22.40;100.00;97621.59;5034325;28;20275;-63
2021/07/18 03:25:22;;;;;;;6.33;5.83;;;;;;;22.38;100.00;97625.84;5041313;28;20237;-62
2021/07/18 03:27:48;;;;;;;5.93;5.43;;;;;;;22.33;100.00;97614.59;5045160;28;20814;-64
2021/07/18 03:30:16;;;;;;;5.93;5.37;;;;;;;22.38;100.00;97621.56;5047255;28;20311;-62
2021/07/18 03:32:43;;;;;;;5.70;5.20;;;;;;;22.38;100.00;97625.84;5050240;28;20205;-64
2021/07/18 03:35:10;;;;;;;5.97;5.40;;;;;;;22.36;100.00;97622.34;5050152;28;20687;-64
2021/07/18 03:37:36;;;;;;;6.03;5.53;;;;;;;22.37;100.00;97624.06;5048416;28;20232;-59
2021/07/18 03:40:08;;;;;;;6.00;5.50;;;;;;;22.37;100.00;97634.31;5044165;28;20225;-60
2021/07/18 03:42:35;;;;;;;5.63;5.17;;;;;;;22.17;100.00;97599.66;5044445;28;20233;-64
2021/07/18 03:45:02;;;;;;;5.97;5.47;;;;;;;22.35;100.00;97630.88;5045084;28;20295;-62
2021/07/18 03:47:29;;;;;;;5.57;5.17;;;;;;;22.33;100.00;97629.94;5045636;28;20641;-61
2021/07/18 03:50:00;;;;;;;6.10;5.60;;;;;;;22.34;100.00;97632.56;5040261;28;20222;-63
2021/07/18 03:52:27;;;;;;;6.50;5.60;;;;;;;22.34;100.00;97637.69;5040062;28;20297;-64
2021/07/18 03:54:53;;;;;;;6.00;5.50;;;;;;;22.34;100.00;97636.81;5040690;28;20233;-60
2021/07/18 03:57:20;;;;;;;6.07;5.57;;;;;;;22.35;100.00;97638.56;5043613;28;20258;-62
2021/07/18 03:59:46;;;;;;;5.37;4.97;;;;;;;22.35;100.00;97647.09;5039006;28;20275;-64
2021/07/18 04:02:13;;;;;;;5.63;5.13;;;;;;;22.35;100.00;97641.97;5041209;28;20662;-65
2021/07/18 04:04:40;;;;;;;6.23;5.73;;;;;;;22.35;100.00;97641.97;5042465;28;20213;-61
2021/07/18 04:07:06;;;;;;;5.53;5.13;;;;;;;22.33;100.00;97635.06;5047517;28;20233;-61
2021/07/18 04:09:33;;;;;;;5.87;5.37;;;;;;;22.35;100.00;97641.97;5040005;28;20635;-64
2021/07/18 04:11:59;;;;;;;5.67;5.27;;;;;;;22.35;100.00;97638.56;5038816;28;20742;-63
2021/07/18 04:14:27;;;;;;;5.53;5.00;;;;;;;22.36;100.00;97642.84;5038521;28;20207;-62
2021/07/18 04:16:53;;;;;;;5.40;4.90;;;;;;;22.34;100.00;97644.47;5039702;28;20222;-61
2021/07/18 04:19:20;;;;;;;5.63;5.13;;;;;;;22.35;100.00;97649.66;5034170;28;20268;-63
2021/07/18 04:21:46;;;;;;;5.47;4.97;;;;;;;22.36;100.00;97658.22;5042241;28;20201;-64
2021/07/18 04:24:13;;;;;;;5.43;5.03;;;;;;;22.35;100.00;97654.78;5040040;28;20263;-62
2021/07/18 04:26:40;;;;;;;5.47;5.07;;;;;;;22.36;100.00;97651.41;5037529;28;20223;-60
2021/07/18 04:29:06;;;;;;;5.53;5.10;;;;;;;21.93;100.00;97583.59;5042321;28;20271;-64
2021/07/18 04:31:33;;;;;;;5.43;4.93;;;;;;;22.35;100.00;97653.91;5042786;28;20236;-62
2021/07/18 04:34:00;;;;;;;5.40;4.97;;;;;;;22.36;100.00;97653.97;5040132;28;20205;-62
2021/07/18 04:36:26;;;;;;;4.93;4.53;;;;;;;22.35;100.00;97657.31;5043975;28;20221;-60
2021/07/18 04:38:53;;;;;;;5.50;5.10;;;;;;;22.33;100.00;97650.44;5045534;28;20287;-64
2021/07/18 04:41:20;;;;;;;5.30;4.80;;;;;;;22.37;100.00;97663.38;5046703;28;20674;-63
2021/07/18 04:43:46;;;;;;;5.80;5.30;;;;;;;22.37;100.00;97662.50;5048020;28;20287;-62
2021/07/18 04:46:13;;;;;;;5.87;5.37;;;;;;;22.35;100.00;97657.31;5046079;28;20691;-60
2021/07/18 04:48:39;;;;;;;6.00;5.37;;;;;;;22.37;100.00;97663.38;5044267;28;20202;-64
2021/07/18 04:51:06;;;;;;;5.50;5.03;;;;;;;22.38;100.00;97659.97;5040908;28;20256;-62
2021/07/18 04:53:33;;;;;;;11.20;5.50;;;;;;;21.87;100.00;97574.03;5044610;28;20236;-62
2021/07/18 04:55:59;;;;;;;5.57;5.07;;;;;;;21.88;100.00;97574.91;5040851;28;20653;-61
2021/07/18 04:58:26;;;;;;;5.30;4.90;;;;;;;22.37;100.00;97657.38;5042416;28;20291;-65
2021/07/18 05:00:53;;;;;;;5.00;4.60;;;;;;;22.37;100.00;97663.38;5043367;28;20304;-63
2021/07/18 05:03:19;;;;;;;5.47;4.97;;;;;;;22.38;100.00;97667.66;5041271;28;20236;-62
2021/07/18 05:05:46;;;;;;;5.00;4.57;;;;;;;22.20;100.00;97644.09;5040994;28;20469;-62
2021/07/18 05:08:13;;;;;;;5.23;4.83;;;;;;;22.39;100.00;97673.66;5039836;28;20666;-63
2021/07/18 05:10:39;;;;;;;5.30;4.80;;;;;;;21.86;100.00;97587.66;5041528;28;20264;-63
2021/07/18 05:13:06;;;;;;;5.30;4.80;;;;;;;22.39;100.00;97673.66;5041834;28;20236;-61
2021/07/18 05:15:34;;;;;;;5.17;4.77;;;;;;;22.39;100.00;97681.34;5038053;28;20264;-61
2021/07/18 05:18:09;;;;;;;5.10;4.70;;;;;;;22.39;100.00;97691.59;5035057;28;20213;-62
2021/07/18 05:20:36;;;;;;;5.03;4.63;;;;;;;22.39;100.00;97689.03;5039078;28;20220;-64
2021/07/18 05:23:02;;;;;;;4.80;4.40;;;;;;;22.38;100.00;97687.28;5042389;28;20239;-61
2021/07/18 05:25:29;;;;;;;4.73;4.40;;;;;;;22.38;100.00;97693.25;5038282;28;20232;-62
2021/07/18 05:27:56;;;;;;;5.97;4.90;;;;;;;22.31;100.00;97693.03;5042100;28;20209;-64
2021/07/18 05:30:22;;;;;;;5.07;4.67;;;;;;;22.37;100.00;97694.09;5040652;28;20221;-65
2021/07/18 05:32:49;;;;;;;5.13;4.73;;;;;;;22.36;100.00;97692.38;5043224;28;20289;-61
2021/07/18 05:35:15;;;;;;;5.00;4.50;;;;;;;22.31;100.00;97687.91;5041385;28;20232;-61
2021/07/18 05:37:42;;;;;;;4.80;4.30;;;;;;;22.35;100.00;97694.88;5037738;28;20264;-60
2021/07/18 05:40:10;;;;;;;4.67;4.27;;;;;;;22.34;100.00;97696.56;5042435;28;20807;-64
2021/07/18 05:42:36;;;;;;;4.87;4.47;;;;;;;22.35;100.00;97700.00;5041326;28;20201;-61
2021/07/18 05:45:07;;;;;;;4.40;4.00;;;;;;;22.34;100.00;97699.13;5045314;28;20240;-62
2021/07/18 05:47:34;;;;;;;5.00;4.60;;;;;;;22.33;100.00;97688.84;5042965;28;20720;-63
2021/07/18 05:50:02;;;;;;;4.80;4.40;;;;;;;22.34;100.00;97700.81;5030227;28;20616;-61
2021/07/18 05:52:29;;;;;;;5.00;4.60;;;;;;;22.31;100.00;97706.72;5034020;28;20732;-61
2021/07/18 05:54:57;;;;;;;4.60;4.20;;;;;;;22.34;100.00;97709.38;5036523;28;20209;-62
2021/07/18 05:57:23;;;;;;;4.40;4.10;;;;;;;22.34;100.00;97711.06;5042036;28;20260;-61
2021/07/18 05:59:52;;;;;;;4.90;4.50;;;;;;;22.34;100.00;97708.50;5040630;28;20713;-62
2021/07/18 06:02:19;;;;;;;5.40;5.00;;;;;;;22.35;100.00;97713.66;5038429;28;20585;-63
2021/07/18 06:04:46;;;;;;;5.07;4.67;;;;;;;22.31;100.00;97703.28;5040425;28;20212;-62
2021/07/18 06:07:12;;;;;;;4.30;4.00;;;;;;;22.33;100.00;97707.66;5030502;28;20301;-62
2021/07/18 06:09:40;;;;;;;5.00;4.50;;;;;;;22.34;100.00;97708.50;5027234;28;20316;-64
2021/07/18 06:12:07;;;;;;;4.70;4.30;;;;;;;22.34;100.00;97703.38;5032751;28;20259;-65
2021/07/18 06:14:34;;;;;;;5.00;4.60;;;;;;;22.34;100.00;97706.81;5028492;28;20240;-60
2021/07/18 06:17:00;;;;;;;4.60;4.20;;;;;;;22.35;100.00;97708.53;5021446;28;20230;-61
2021/07/18 06:19:27;;;;;;;4.60;4.20;;;;;;;22.35;100.00;97710.25;5029246;28;20245;-63
2021/07/18 06:21:53;;;;;;;4.60;4.20;;;;;;;22.35;100.00;97712.81;5038594;28;20879;-63
2021/07/18 06:24:20;;;;;;;4.63;4.27;;;;;;;22.35;100.00;97710.25;5031860;28;20300;-63
2021/07/18 06:26:47;;;;;;;4.87;4.47;;;;;;;22.34;100.00;97711.94;5029080;28;20225;-61
2021/07/18 06:29:14;;;;;;;5.03;4.30;;;;;;;22.35;100.00;97716.22;5034946;28;20237;-59
2021/07/18 06:31:41;;;;;;;4.80;4.27;;;;;;;22.36;100.00;97717.97;5030199;28;20229;-61
2021/07/18 06:34:07;;;;;;;4.60;4.20;;;;;;;22.36;100.00;97711.97;5041837;28;20571;-63
2021/07/18 06:36:34;;;;;;;4.63;4.23;;;;;;;22.36;100.00;97715.41;5034239;28;20308;-63
2021/07/18 06:39:01;;;;;;;4.97;4.50;;;;;;;22.34;100.00;97711.94;5034049;28;20216;-63
2021/07/18 06:41:28;;;;;;;4.50;4.10;;;;;;;22.31;100.00;97710.97;5031213;28;20243;-62
2021/07/18 06:43:54;;;;;;;4.73;4.33;;;;;;;22.32;100.00;97717.84;5032555;28;20241;-60
2021/07/18 06:46:31;;;;;;;4.50;4.10;;;;;;;22.37;100.00;97724.81;5024293;28;20316;-64
2021/07/18 06:48:58;;;;;;;4.83;4.20;;;;;;;22.37;100.00;97729.06;5031697;28;20216;-61
2021/07/18 06:51:25;;;;;;;4.60;4.20;;;;;;;22.35;100.00;97720.50;5035808;28;20298;-61
2021/07/18 06:53:52;;;;;;;4.83;4.33;;;;;;;22.37;100.00;97721.38;5030994;28;20288;-63
2021/07/18 06:56:32;;;;;;;6.20;3.97;;;;;;;22.32;100.00;97718.69;5041693;28;20236;-64
2021/07/18 06:58:59;;;;;;;4.60;4.20;;;;;;;22.33;100.00;97719.56;5036005;28;20225;-60
2021/07/18 07:01:25;;;;;;;4.70;4.30;;;;;;;22.20;100.00;97707.25;5036958;28;20259;-61
2021/07/18 07:03:52;;;;;;;4.50;4.10;;;;;;;22.36;100.00;97735.91;5031453;28;20576;-66
2021/07/18 07:06:19;;;;;;;4.73;4.33;;;;;;;22.19;100.00;97701.25;5031820;28;20205;-61
2021/07/18 07:08:45;;;;;;;4.50;4.10;;;;;;;22.23;100.00;97713.31;5030326;28;20201;-61
2021/07/18 07:11:12;;;;;;;4.40;4.00;;;;;;;22.33;100.00;97724.69;5040774;28;20607;-61
2021/07/18 07:13:39;;;;;;;4.57;4.13;;;;;;;22.39;100.00;97746.25;5047229;28;20232;-65
2021/07/18 07:16:06;;;;;;;4.50;4.20;;;;;;;22.36;100.00;97742.72;5037888;28;20208;-61
2021/07/18 07:18:33;;;;;;;4.80;4.40;;;;;;;22.39;100.00;97751.34;5041553;28;20959;-60
2021/07/18 07:20:59;;;;;;;4.90;4.07;;;;;;;22.39;100.00;97740.22;5042711;28;20776;-61
2021/07/18 07:23:26;;;;;;;4.20;3.90;;;;;;;22.40;100.00;97744.53;5033898;28;20292;-61
2021/07/18 07:25:52;;;;;;;4.13;3.83;;;;;;;22.39;100.00;97746.25;5041021;28;20300;-62
2021/07/18 07:28:21;;;;;;;4.60;4.20;;;;;;;22.33;100.00;97740.94;5033805;28;20206;-61
2021/07/18 07:30:47;;;;;;;4.60;4.30;;;;;;;22.40;100.00;97750.53;5039747;28;20225;-63
2021/07/18 07:33:15;;;;;;;4.30;3.90;;;;;;;22.40;100.00;97753.09;5044635;28;20296;-64
2021/07/18 07:35:41;;;;;;;4.20;3.90;;;;;;;22.36;100.00;97745.28;5035269;28;20209;-61
2021/07/18 07:38:08;;;;;;;4.40;4.00;;;;;;;22.35;100.00;97738.41;5035478;28;20306;-66
2021/07/18 07:40:35;;;;;;;4.83;3.83;;;;;;;22.40;100.00;97747.97;5032225;28;20249;-63
2021/07/18 07:43:01;;;;;;;4.40;4.00;;;;;;;22.40;100.00;97742.84;5038887;28;20225;-61
2021/07/18 07:45:28;;;;;;;3.87;3.57;;;;;;;22.40;100.00;97742.84;5045439;28;20643;-62
2021/07/18 07:47:55;;;;;;;4.33;3.93;;;;;;;22.35;100.00;97728.19;5030865;28;20659;-64
2021/07/18 07:50:21;;;;;;;5.33;3.90;;;;;;;22.39;100.00;97747.91;5031036;28;20644;-61
2021/07/18 07:52:48;;;;;;;4.03;3.73;;;;;;;22.39;100.00;97748.81;5033137;28;20230;-64
2021/07/18 07:55:15;;;;;;;6.87;4.13;;;;;;;22.39;100.00;97745.34;5036571;28;20265;-62
2021/07/18 07:57:41;;;;;;;4.47;3.93;;;;;;;22.38;100.00;97739.34;5033630;28;20308;-65
2021/07/18 08:00:12;;;;;;;4.30;3.90;;;;;;;22.38;100.00;97746.19;5035087;28;20253;-64
2021/07/18 08:02:39;;;;;;;4.20;3.90;;;;;;;22.34;100.00;97737.53;5031696;28;20202;-61
2021/07/18 08:05:07;;;;;;;4.10;3.80;;;;;;;22.36;100.00;97741.03;5039594;28;20792;-63
2021/07/18 08:07:34;;;;;;;4.33;4.03;;;;;;;22.36;100.00;97732.47;5038856;28;20229;-61
2021/07/18 08:10:01;;;;;;;5.13;4.10;;;;;;;22.34;100.00;97726.41;5033447;28;20229;-67
2021/07/18 08:12:27;;;;;;;4.07;3.77;;;;;;;22.30;100.00;97727.16;5028289;28;20659;-61
2021/07/18 08:14:54;;;;;;;4.30;3.90;;;;;;;22.30;100.00;97727.16;5030017;28;20682;-61
2021/07/18 08:17:21;;;;;;;4.30;3.90;;;;;;;22.35;100.00;97733.31;5045884;28;20357;-64
2021/07/18 08:19:48;;;;;;;4.60;4.23;;;;;;;22.14;100.00;97695.13;5028970;28;20308;-61
2021/07/18 08:22:19;;;;;;;4.67;4.00;;;;;;;22.35;100.00;97744.38;5025211;28;20196;-65
2021/07/18 08:24:46;;;;;;;4.20;3.80;;;;;;;22.30;100.00;97728.03;5037030;28;20212;-62
2021/07/18 08:27:12;;;;;;;4.30;4.00;;;;;;;22.34;100.00;97734.09;5025237;28;20297;-62
2021/07/18 08:29:39;;;;;;;4.30;4.00;;;;;;;22.33;100.00;97740.06;5046011;28;20307;-60
2021/07/18 08:32:06;;;;;;;3.87;3.57;;;;;;;22.35;100.00;97738.41;5047872;28;20235;-60
2021/07/18 08:34:33;;;;;;;4.30;3.97;;;;;;;22.36;100.00;97747.84;5046452;28;20370;-60
2021/07/18 08:37:00;;;;;;;4.00;3.70;;;;;;;22.34;100.00;97758.03;5040602;28;20275;-61
2021/07/18 08:39:27;;;;;;;4.37;3.97;;;;;;;22.35;100.00;97764.88;5040266;28;20652;-63
2021/07/18 08:41:54;;;;;;;4.20;3.90;;;;;;;22.36;100.00;97755.50;5045620;28;20229;-62
2021/07/18 08:44:21;;;;;;;4.80;3.77;;;;;;;22.35;100.00;97756.34;5040969;28;20201;-62
2021/07/18 08:46:48;;;;;;;4.30;4.00;;;;;;;22.36;100.00;97756.38;5029336;28;20283;-60
2021/07/18 08:49:15;;;;;;;4.10;3.80;;;;;;;22.34;100.00;97762.28;5040186;28;20201;-64
2021/07/18 08:51:41;;;;;;;4.87;4.40;;;;;;;22.31;100.00;97751.94;5042149;28;20988;-63
2021/07/18 08:54:08;;;;;;;4.17;3.77;;;;;;;22.35;100.00;97746.94;5041183;28;20229;-62
2021/07/18 08:56:36;;;;;;;4.37;3.97;;;;;;;22.37;100.00;97764.91;5043139;28;20248;-63
2021/07/18 08:59:05;;;;;;;4.60;3.70;;;;;;;22.37;100.00;97752.13;5040695;28;20317;-61
2021/07/18 09:01:33;;;;;;;4.07;3.77;;;;;;;22.33;100.00;97755.41;5040283;28;20229;-62
2021/07/18 09:04:00;;;;;;;4.30;3.87;;;;;;;22.36;100.00;97751.28;5043357;28;20201;-63
2021/07/18 09:06:42;;;;;;;4.33;4.00;;;;;;;22.36;100.00;97751.28;5042314;28;20200;-61
2021/07/18 09:09:11;;;;;;;6.17;3.80;;;;;;;22.36;100.00;97761.50;5041631;28;20287;-60
2021/07/18 09:11:38;;;;;;;4.27;3.97;;;;;;;22.37;100.00;97759.78;5030688;22;20241;-62
2021/07/18 09:14:06;;;;;;;6.30;4.00;;;;;;;22.38;100.00;97761.56;5006898;28;20407;-62
2021/07/18 09:16:42;;;;;;;3.90;3.60;;;;;;;22.37;100.00;97764.91;5000245;28;20281;-63
2021/07/18 09:19:17;;;;;;;4.17;3.87;;;;;;;22.38;100.00;97764.97;5003560;28;20237;-64
2021/07/18 09:21:56;;;;;;;4.60;3.90;;;;;;;22.37;100.00;97764.91;4990855;28;20229;-61
2021/07/18 09:24:28;;;;;;;4.43;4.03;;;;;;;22.38;100.00;97780.31;4985491;28;20241;-59
2021/07/18 09:27:11;;;;;;;3.93;3.63;;;;;;;22.37;100.00;97777.72;4984423;28;20249;-62
2021/07/18 09:30:03;;;;;;;4.30;3.90;;;;;;;22.39;100.00;97771.84;4986594;28;20211;-63
2021/07/18 09:32:30;;;;;;;4.73;3.87;;;;;;;22.39;100.00;97773.53;4976580;28;20294;-61
2021/07/18 09:35:00;;;;;;;4.07;3.67;;;;;;;22.40;100.00;97770.13;4994578;28;20286;-62
2021/07/18 09:37:28;;;;;;;4.40;4.00;;;;;;;22.40;100.00;97772.69;4996686;28;20277;-62
2021/07/18 09:39:59;;;;;;;4.33;3.93;;;;;;;22.38;100.00;97772.66;4995041;28;20317;-62
2021/07/18 09:42:28;;;;;;;4.57;4.17;;;;;;;22.39;100.00;97768.41;4997194;28;20383;-62
2021/07/18 09:44:55;;;;;;;7.80;3.90;;;;;;;22.40;100.00;97771.00;4991710;28;20238;-62
2021/07/18 09:47:22;;;;;;;4.23;3.83;;;;;;;22.40;100.00;97772.69;4998275;28;20640;-63
2021/07/18 09:49:48;;;;;;;6.57;4.37;;;;;;;22.41;100.00;97769.34;4987743;28;20241;-62
2021/07/18 09:52:15;;;;;;;4.50;4.10;;;;;;;22.41;100.00;97774.44;4983875;28;20322;-63
2021/07/18 09:54:42;;;;;;;5.10;4.10;;;;;;;22.41;100.00;97759.09;4994286;28;20313;-62
2021/07/18 09:57:09;;;;;;;4.90;4.00;;;;;;;22.40;100.00;97765.88;4995199;28;20318;-62
2021/07/18 09:59:41;;;;;;;6.07;4.10;;;;;;;22.42;100.00;97771.06;4992801;28;20234;-63
2021/07/18 10:02:08;;;;;;;7.30;3.67;;;;;;;22.42;100.00;97765.94;4991100;28;20238;-63
2021/07/18 10:04:39;;;;;;;4.67;4.27;;;;;;;22.40;100.00;97773.56;4996224;28;20203;-64
2021/07/18 10:07:06;;;;;;;5.40;3.93;;;;;;;22.42;100.00;97778.75;4995913;28;20245;-65
2021/07/18 10:09:34;;;;;;;6.30;4.27;;;;;;;22.40;100.00;97773.56;4995689;28;20287;-62
2021/07/18 10:12:01;;;;;;;3.80;3.50;;;;;;;22.39;100.00;97774.41;4980654;28;20257;-63
2021/07/18 10:14:28;;;;;;;4.17;3.77;;;;;;;22.38;100.00;97766.69;4986340;28;20233;-63
2021/07/18 10:16:55;;;;;;;3.93;3.60;;;;;;;22.37;100.00;97763.25;4993345;28;20203;-63
2021/07/18 10:19:22;;;;;;;4.17;3.77;;;;;;;22.37;100.00;97767.47;4981339;28;20724;-65
2021/07/18 10:21:49;;;;;;;8.47;3.87;;;;;;;22.36;100.00;97765.75;4971219;28;20284;-63
2021/07/18 10:24:15;;;;;;;4.57;4.07;;;;;;;21.94;100.00;97697.91;4990866;28;20234;-63
2021/07/18 10:26:42;;;;;;;4.23;3.83;;;;;;;22.34;100.00;97760.59;4992718;28;20290;-64
2021/07/18 10:29:09;;;;;;;3.93;3.63;;;;;;;22.32;100.00;97767.34;4994586;28;20237;-65
2021/07/18 10:31:44;;;;;;;5.13;3.67;;;;;;;22.32;100.00;97769.06;4991984;28;20723;-63
2021/07/18 10:34:11;;;;;;;4.27;3.97;;;;;;;22.31;100.00;97769.84;5003379;28;20213;-65
2021/07/18 10:36:37;;;;;;;4.23;3.83;;;;;;;22.22;100.00;97747.41;4994454;28;20284;-63
2021/07/18 10:39:30;;;;;;;5.87;3.80;;;;;;;22.31;100.00;97767.31;4974988;28;20230;-61
2021/07/18 10:41:57;;;;;;;4.50;3.80;;;;;;;21.77;100.00;97676.94;4983253;28;20354;-62
2021/07/18 10:44:25;;;;;;;4.37;3.97;;;;;;;22.30;100.00;97765.56;4985193;28;20214;-62
2021/07/18 10:46:54;;;;;;;4.20;3.80;;;;;;;22.30;100.00;97768.13;4980623;28;20293;-63
2021/07/18 10:49:53;;;;;;;4.07;3.77;;;;;;;22.30;100.00;97769.00;4986468;28;20290;-64
2021/07/18 10:52:27;;;;;;;4.97;4.03;;;;;;;22.29;100.00;97771.53;4973798;28;20282;-64
2021/07/18 10:54:54;;;;;;;5.90;4.07;;;;;;;22.29;100.00;97764.69;4986665;28;20239;-61
2021/07/18 10:57:21;;;;;;;4.20;3.80;;;;;;;22.29;100.00;97761.28;4984733;28;20258;-63
2021/07/18 10:59:47;;;;;;;4.97;3.87;;;;;;;22.28;100.00;97757.84;4982232;28;20293;-62
2021/07/18 11:02:17;;;;;;;4.50;4.00;;;;;;;22.28;100.00;97762.97;4985393;28;20299;-62
2021/07/18 11:04:51;;;;;;;4.40;4.00;;;;;;;22.29;100.00;97751.03;4986624;28;20214;-62
2021/07/18 11:07:20;;;;;;;4.87;4.40;;;;;;;22.30;100.00;97755.34;4979008;28;20282;-63
2021/07/18 11:09:51;;;;;;;4.60;4.13;;;;;;;22.29;100.00;97753.59;4986033;28;20746;-64
2021/07/18 11:12:37;;;;;;;4.50;4.10;;;;;;;22.28;100.00;97755.28;4988726;28;20294;-63
2021/07/18 11:15:16;;;;;;;5.00;4.60;;;;;;;22.29;100.00;97751.03;4990948;28;20293;-63
2021/07/18 11:18:07;;;;;;;4.23;3.83;;;;;;;22.28;100.00;97750.16;4994432;28;20605;-62
2021/07/18 11:20:46;;;;;;;4.20;3.80;;;;;;;22.27;100.00;97745.88;4994978;28;20353;-62
2021/07/18 11:23:34;;;;;;;4.60;4.07;;;;;;;22.28;100.00;97744.16;4987817;28;20234;-64
2021/07/18 11:26:04;;;;;;;4.43;4.03;;;;;;;22.28;100.00;97749.28;4993751;28;20206;-62
2021/07/18 11:28:37;;;;;;;4.83;4.30;;;;;;;22.28;100.00;97742.47;4997260;28;20242;-64